createdAt,value
2019-03-29T00:01:26.511Z,62.90
2019-03-29T00:04:02.989Z,61.80
2019-03-29T00:06:33.717Z,65.10
2019-03-29T00:09:05.921Z,61.70
2019-03-29T00:11:37.219Z,65.30
2019-03-29T00:14:07.995Z,62.50
2019-03-29T00:16:39.987Z,63.60
2019-03-29T00:19:11.013Z,67.70
2019-03-29T00:21:43.776Z,67.80
2019-03-29T00:24:15.039Z,72.70
2019-03-29T00:26:49.151Z,73.30
2019-03-29T00:29:20.253Z,79.40
2019-03-29T00:31:57.419Z,75.50
2019-03-29T00:34:32.382Z,80.40
2019-03-29T00:37:04.070Z,80.20
2019-03-29T00:39:38.137Z,80.10
2019-03-29T00:42:10.608Z,76.50
2019-03-29T00:44:41.360Z,77.70
2019-03-29T00:47:12.480Z,75.40
2019-03-29T00:49:43.176Z,76.20
2019-03-29T00:52:16.247Z,76.00
2019-03-29T00:54:48.502Z,77.10
2019-03-29T00:57:20.397Z,74.70
2019-03-29T01:00:02.211Z,75.90
2019-03-29T01:02:33.765Z,73.30
2019-03-29T01:05:07.865Z,74.70
2019-03-29T01:07:41.204Z,73.50
2019-03-29T01:10:11.999Z,74.90
2019-03-29T01:12:43.176Z,74.30
2019-03-29T01:15:14.277Z,76.10
2019-03-29T01:17:46.586Z,79.60
2019-03-29T01:20:17.367Z,81.10
2019-03-29T01:22:51.597Z,83.60
2019-03-29T01:25:23.401Z,81.60
2019-03-29T01:27:56.967Z,78.60
2019-03-29T01:30:27.586Z,74.50
2019-03-29T01:33:00.120Z,68.20
2019-03-29T01:35:31.773Z,69.20
2019-03-29T01:38:21.160Z,72.30
2019-03-29T01:40:41.065Z,71.00
2019-03-29T01:43:14.912Z,72.60
2019-03-29T01:45:47.109Z,73.40
2019-03-29T01:48:17.788Z,74.40
2019-03-29T01:50:48.487Z,73.80
2019-03-29T01:53:59.651Z,72.40
2019-03-29T01:57:28.109Z,71.40
2019-03-29T01:59:59.080Z,71.40
2019-03-29T02:02:31.516Z,71.40
2019-03-29T02:05:02.186Z,71.60
2019-03-29T02:07:32.982Z,70.70
2019-03-29T02:10:03.693Z,70.00
2019-03-29T02:12:34.438Z,68.60
2019-03-29T02:15:08.743Z,67.40
2019-03-29T02:17:40.398Z,67.70
2019-03-29T02:20:11.455Z,68.50
2019-03-29T02:22:42.645Z,69.50
2019-03-29T02:25:13.480Z,70.20
2019-03-29T02:27:45.527Z,75.30
2019-03-29T02:30:16.517Z,76.90
2019-03-29T02:32:47.529Z,79.40
2019-03-29T02:35:19.818Z,78.20
2019-03-29T02:37:56.370Z,78.60
2019-03-29T02:40:28.450Z,80.10
2019-03-29T02:42:59.441Z,79.40
2019-03-29T02:45:32.281Z,80.40
2019-03-29T02:48:02.996Z,80.50
2019-03-29T02:50:36.839Z,79.90
2019-03-29T02:53:08.010Z,80.30
2019-03-29T02:55:38.655Z,78.50
2019-03-29T02:58:11.099Z,79.20
2019-03-29T03:00:43.069Z,78.50
2019-03-29T03:03:14.192Z,90.00
2019-03-29T03:05:46.936Z,90.70
2019-03-29T03:08:17.720Z,91.80
2019-03-29T03:10:52.874Z,88.50
2019-03-29T03:13:23.564Z,89.00
2019-03-29T03:15:54.847Z,90.30
2019-03-29T03:18:25.681Z,86.80
2019-03-29T03:20:57.533Z,91.20
2019-03-29T03:23:28.321Z,91.90
2019-03-29T03:26:01.036Z,92.50
2019-03-29T03:28:33.664Z,89.30
2019-03-29T03:31:04.360Z,90.20
2019-03-29T03:33:35.059Z,88.50
2019-03-29T03:36:07.863Z,89.60
2019-03-29T03:38:38.876Z,88.90
2019-03-29T03:41:17.492Z,90.70
2019-03-29T03:43:48.169Z,93.00
2019-03-29T03:46:18.813Z,93.60
2019-03-29T03:48:52.087Z,92.30
2019-03-29T03:51:25.252Z,92.20
2019-03-29T03:54:04.256Z,92.60
2019-03-29T03:56:35.426Z,91.60
2019-03-29T03:59:06.271Z,92.80
2019-03-29T04:01:38.951Z,92.00
2019-03-29T04:04:11.528Z,90.60
2019-03-29T04:06:42.684Z,89.30
2019-03-29T04:09:16.657Z,89.20
2019-03-29T04:11:47.409Z,89.40
2019-03-29T04:14:18.118Z,89.20
2019-03-29T04:16:50.176Z,88.10
2019-03-29T04:19:22.449Z,89.00
2019-03-29T04:21:55.849Z,86.70
2019-03-29T04:24:29.343Z,87.90
2019-03-29T04:27:01.659Z,90.20
2019-03-29T04:29:34.107Z,90.40
2019-03-29T04:32:09.476Z,89.30
2019-03-29T04:34:42.361Z,91.00
2019-03-29T04:37:13.120Z,92.10
2019-03-29T04:39:45.034Z,92.90
2019-03-29T04:42:16.013Z,93.50
2019-03-29T04:44:46.691Z,93.30
2019-03-29T04:47:18.361Z,92.80
2019-03-29T04:49:49.015Z,91.70
2019-03-29T04:52:23.607Z,93.50
2019-03-29T04:54:54.709Z,92.50
2019-03-29T04:57:33.709Z,93.80
2019-03-29T05:00:08.358Z,92.70
2019-03-29T05:02:40.212Z,91.80
2019-03-29T05:05:20.777Z,90.00
2019-03-29T05:07:51.553Z,91.00
2019-03-29T05:11:00.845Z,90.90
2019-03-29T05:13:51.023Z,91.00
2019-03-29T05:16:54.942Z,90.90
2019-03-29T05:20:00.376Z,92.10
2019-03-29T05:23:04.042Z,92.30
2019-03-29T05:26:09.185Z,92.70
2019-03-29T05:29:11.446Z,91.40
2019-03-29T05:32:20.671Z,93.40
2019-03-29T05:34:52.555Z,91.90
2019-03-29T05:37:24.341Z,92.60
2019-03-29T05:39:55.571Z,92.60
2019-03-29T05:42:26.331Z,93.60
2019-03-29T05:45:15.883Z,94.50
2019-03-29T05:48:34.445Z,94.80
2019-03-29T05:51:07.990Z,98.30
2019-03-29T05:53:38.674Z,97.80
2019-03-29T05:56:13.062Z,98.70
2019-03-29T05:58:45.538Z,90.90
2019-03-29T06:01:18.963Z,92.40
2019-03-29T06:03:51.437Z,92.10
2019-03-29T06:06:28.158Z,92.40
2019-03-29T06:09:01.381Z,92.00
2019-03-29T06:11:32.182Z,92.20
2019-03-29T06:14:05.403Z,92.20
2019-03-29T06:16:39.161Z,91.60
2019-03-29T06:19:11.363Z,90.20
2019-03-29T06:21:45.293Z,88.90
2019-03-29T06:24:16.212Z,89.10
2019-03-29T06:26:46.985Z,89.40
2019-03-29T06:29:18.858Z,90.00
2019-03-29T06:31:50.983Z,90.00
2019-03-29T06:34:21.658Z,91.20
2019-03-29T06:36:55.009Z,91.00
2019-03-29T06:39:28.042Z,91.80
2019-03-29T06:41:59.328Z,92.40
2019-03-29T06:44:31.500Z,93.40
2019-03-29T06:47:10.193Z,94.20
2019-03-29T06:49:42.373Z,94.20
2019-03-29T06:52:14.202Z,93.20
2019-03-29T06:54:45.067Z,92.60
2019-03-29T06:57:17.453Z,91.30
2019-03-29T06:59:49.072Z,89.20
2019-03-29T07:02:22.021Z,85.70
2019-03-29T07:04:53.029Z,82.80
2019-03-29T07:07:25.277Z,81.00
2019-03-29T07:09:56.001Z,79.00
2019-03-29T07:12:26.702Z,76.60
2019-03-29T07:14:57.415Z,77.70
2019-03-29T07:17:28.166Z,74.40
2019-03-29T07:19:59.277Z,70.50
2019-03-29T07:22:30.820Z,67.90
2019-03-29T07:25:03.712Z,66.10
2019-03-29T07:27:44.599Z,63.70
2019-03-29T07:30:09.736Z,61.90
2019-03-29T07:32:40.554Z,60.30
2019-03-29T07:35:11.878Z,60.60
2019-03-29T07:37:43.570Z,59.00
2019-03-29T07:40:15.588Z,57.90
2019-03-29T07:42:46.717Z,56.40
2019-03-29T07:45:17.598Z,55.50
2019-03-29T07:47:49.174Z,56.80
2019-03-29T07:50:20.415Z,56.30
2019-03-29T07:52:53.927Z,53.80
2019-03-29T07:55:31.610Z,52.70
2019-03-29T07:58:02.645Z,50.90
2019-03-29T08:00:33.589Z,50.90
2019-03-29T08:03:07.130Z,50.50
2019-03-29T08:05:40.161Z,49.90
2019-03-29T08:08:23.978Z,48.80
2019-03-29T08:10:53.486Z,48.30
2019-03-29T08:13:27.324Z,47.60
2019-03-29T08:16:06.592Z,47.50
2019-03-29T08:18:37.754Z,47.50
2019-03-29T08:21:10.242Z,46.50
2019-03-29T08:23:40.967Z,44.00
2019-03-29T08:26:14.354Z,43.20
2019-03-29T08:28:45.688Z,42.80
2019-03-29T08:31:16.362Z,42.50
2019-03-29T08:33:48.497Z,41.80
2019-03-29T08:36:21.710Z,41.50
2019-03-29T08:38:53.281Z,40.90
2019-03-29T08:41:27.077Z,40.40
2019-03-29T08:44:00.780Z,38.90
2019-03-29T08:46:31.464Z,39.50
2019-03-29T08:49:04.433Z,39.00
2019-03-29T08:51:35.524Z,36.70
2019-03-29T08:54:06.648Z,37.80
2019-03-29T08:56:37.355Z,36.20
2019-03-29T08:59:08.475Z,36.00
2019-03-29T09:01:41.645Z,34.80
2019-03-29T09:04:14.068Z,35.30
2019-03-29T09:06:53.480Z,34.70
2019-03-29T09:09:19.369Z,33.80
2019-03-29T09:11:52.865Z,33.60
2019-03-29T09:15:03.719Z,34.40
2019-03-29T09:17:51.623Z,33.40
2019-03-29T09:20:49.368Z,31.60
2019-03-29T09:23:48.882Z,32.40
2019-03-29T09:26:55.895Z,31.30
2019-03-29T09:30:06.414Z,29.40
2019-03-29T09:33:09.085Z,29.30
2019-03-29T09:36:24.092Z,28.40
2019-03-29T09:39:19.796Z,27.70
2019-03-29T09:42:29.212Z,27.00
2019-03-29T09:45:26.434Z,25.30
2019-03-29T09:48:03.211Z,25.60
2019-03-29T09:50:57.614Z,25.90
2019-03-29T09:53:44.190Z,26.20
2019-03-29T09:56:16.388Z,25.60
2019-03-29T09:58:50.103Z,26.00
2019-03-29T10:01:29.547Z,26.60
2019-03-29T10:04:04.270Z,24.90
2019-03-29T10:06:35.859Z,24.70
2019-03-29T10:09:08.181Z,24.60
2019-03-29T10:12:11.314Z,25.60
2019-03-29T10:15:01.494Z,24.70
2019-03-29T10:17:43.897Z,24.10
2019-03-29T10:20:18.036Z,23.90
2019-03-29T10:22:51.712Z,23.20
2019-03-29T10:25:23.135Z,23.80
2019-03-29T10:28:04.292Z,22.90
2019-03-29T10:30:40.596Z,22.30
2019-03-29T10:33:21.088Z,21.10
2019-03-29T10:35:53.228Z,20.90
2019-03-29T10:38:33.682Z,20.90
2019-03-29T10:41:04.837Z,21.20
2019-03-29T10:43:38.837Z,21.50
2019-03-29T10:46:12.322Z,21.70
2019-03-29T10:48:44.979Z,21.00
2019-03-29T10:51:28.382Z,19.80
2019-03-29T10:54:03.128Z,19.30
2019-03-29T10:56:34.855Z,18.30
2019-03-29T10:59:06.186Z,18.10
2019-03-29T11:01:37.150Z,17.10
2019-03-29T11:04:07.917Z,17.40
2019-03-29T11:06:43.659Z,17.70
2019-03-29T11:09:15.693Z,15.70
2019-03-29T11:11:47.486Z,17.80
2019-03-29T11:14:20.003Z,17.70
2019-03-29T11:16:53.734Z,18.00
2019-03-29T11:19:24.930Z,17.10
2019-03-29T11:21:56.304Z,15.70
2019-03-29T11:24:27.779Z,16.30
2019-03-29T11:26:58.512Z,16.10
2019-03-29T11:29:32.147Z,15.90
2019-03-29T11:32:04.303Z,16.60
2019-03-29T11:34:38.892Z,17.00
2019-03-29T11:37:10.850Z,17.00
2019-03-29T11:39:44.281Z,17.60
2019-03-29T11:42:16.595Z,15.80
2019-03-29T11:44:49.313Z,15.40
2019-03-29T11:47:24.897Z,14.70
2019-03-29T11:49:55.852Z,14.20
2019-03-29T11:52:26.792Z,13.40
2019-03-29T11:54:57.868Z,12.60
2019-03-29T11:57:29.149Z,13.20
2019-03-29T12:00:02.790Z,13.10
2019-03-29T12:02:41.387Z,13.00
2019-03-29T12:05:12.330Z,12.80
2019-03-29T12:07:45.121Z,13.40
2019-03-29T12:10:17.773Z,12.70
2019-03-29T12:12:49.696Z,13.20
2019-03-29T12:15:24.918Z,13.40
2019-03-29T12:17:55.787Z,13.50
2019-03-29T12:20:27.864Z,12.50
2019-03-29T12:23:01.210Z,13.30
2019-03-29T12:25:32.681Z,12.90
2019-03-29T12:28:07.121Z,13.40
2019-03-29T12:30:45.112Z,12.50
2019-03-29T12:33:16.443Z,11.80
2019-03-29T12:36:20.589Z,12.20
2019-03-29T12:39:12.034Z,11.90
2019-03-29T12:42:15.171Z,11.90
2019-03-29T12:45:14.593Z,11.80
2019-03-29T12:48:12.921Z,12.00
2019-03-29T12:51:09.145Z,11.90
2019-03-29T12:53:55.349Z,12.20
2019-03-29T12:56:55.739Z,12.10
2019-03-29T12:59:56.925Z,11.50
2019-03-29T13:02:46.464Z,11.30
2019-03-29T13:05:24.157Z,11.60
2019-03-29T13:07:55.211Z,13.20
2019-03-29T13:10:27.398Z,11.40
2019-03-29T13:13:03.123Z,11.50
2019-03-29T13:15:34.034Z,11.50
2019-03-29T13:18:10.959Z,12.30
2019-03-29T13:20:42.532Z,10.90
2019-03-29T13:23:17.491Z,11.40
2019-03-29T13:26:32.756Z,10.70
2019-03-29T13:29:03.656Z,9.70
2019-03-29T13:32:33.250Z,11.10
2019-03-29T13:35:01.635Z,10.70
2019-03-29T13:38:14.709Z,9.90
2019-03-29T13:41:16.512Z,9.80
2019-03-29T13:44:24.517Z,9.60
2019-03-29T13:47:31.516Z,9.90
2019-03-29T13:50:38.899Z,9.20
2019-03-29T13:53:34.653Z,8.50
2019-03-29T13:56:32.182Z,7.20
2019-03-29T14:03:05.951Z,4.10
2019-03-29T14:05:35.523Z,3.00
2019-03-29T14:08:06.461Z,2.40
2019-03-29T14:10:37.808Z,2.60
2019-03-29T14:13:09.803Z,2.80
2019-03-29T14:15:40.507Z,3.10
2019-03-29T14:18:11.226Z,2.70
2019-03-29T14:20:42.366Z,2.30
2019-03-29T14:23:13.630Z,1.70
2019-03-29T14:25:45.145Z,2.10
2019-03-29T14:28:16.230Z,2.10
2019-03-29T14:30:48.359Z,1.00
2019-03-29T14:33:23.831Z,1.00
2019-03-29T14:35:56.776Z,1.00
2019-03-29T14:38:29.628Z,1.00
2019-03-29T14:41:00.379Z,1.00
2019-03-29T14:43:31.623Z,1.00
2019-03-29T14:46:02.341Z,1.00
2019-03-29T14:48:33.951Z,1.00
2019-03-29T14:51:54.017Z,1.00
2019-03-29T14:54:27.202Z,1.00
2019-03-29T14:56:57.954Z,1.00
2019-03-29T14:59:30.041Z,1.00
2019-03-29T15:02:00.783Z,1.00
2019-03-29T15:04:31.652Z,1.00
2019-03-29T15:07:02.805Z,1.00
2019-03-29T15:09:36.726Z,1.00
2019-03-29T15:12:07.462Z,1.00
2019-03-29T15:14:38.167Z,1.00
2019-03-29T15:17:11.406Z,1.00
2019-03-29T15:19:43.260Z,1.00
2019-03-29T15:22:17.955Z,1.00
2019-03-29T15:24:51.545Z,1.00
2019-03-29T15:27:24.329Z,1.00
2019-03-29T15:29:55.509Z,1.00
2019-03-29T15:32:31.904Z,1.00
2019-03-29T15:35:03.402Z,1.00
2019-03-29T15:37:35.763Z,1.00
2019-03-29T15:40:09.574Z,1.00
2019-03-29T15:42:40.299Z,1.00
2019-03-29T15:45:20.269Z,1.00
2019-03-29T15:47:47.210Z,1.00
2019-03-29T15:50:20.812Z,1.00
2019-03-29T15:52:54.354Z,1.00
2019-03-29T15:55:26.123Z,1.50
2019-03-29T15:57:57.012Z,2.40
2019-03-29T16:00:30.287Z,3.80
2019-03-29T16:03:01.113Z,4.10
2019-03-29T16:05:37.586Z,4.70
2019-03-29T16:08:11.131Z,5.60
2019-03-29T16:10:41.799Z,6.20
2019-03-29T16:13:12.535Z,7.20
2019-03-29T16:15:43.253Z,6.20
2019-03-29T16:18:14.514Z,6.90
2019-03-29T16:20:45.226Z,7.60
2019-03-29T16:23:16.245Z,7.60
2019-03-29T16:25:48.920Z,7.50
2019-03-29T16:28:19.919Z,8.40
2019-03-29T16:30:51.882Z,8.30
2019-03-29T16:33:25.120Z,9.20
2019-03-29T16:36:00.456Z,7.90
2019-03-29T16:38:34.771Z,8.40
2019-03-29T16:41:05.472Z,9.10
2019-03-29T16:43:38.110Z,9.20
2019-03-29T16:46:09.996Z,9.00
2019-03-29T16:48:42.693Z,9.10
2019-03-29T16:51:25.120Z,9.70
2019-03-29T16:53:57.885Z,8.10
2019-03-29T16:56:28.662Z,7.90
2019-03-29T16:59:02.767Z,7.90
2019-03-29T17:01:39.290Z,9.20
2019-03-29T17:04:13.348Z,9.30
2019-03-29T17:06:49.503Z,8.40
2019-03-29T17:09:20.203Z,9.60
2019-03-29T17:11:52.777Z,8.30
2019-03-29T17:14:28.956Z,9.50
2019-03-29T17:17:03.365Z,8.90
2019-03-29T17:19:40.899Z,9.10
2019-03-29T17:22:13.429Z,9.60
2019-03-29T17:24:56.923Z,9.50
2019-03-29T17:27:21.472Z,9.20
2019-03-29T17:29:53.119Z,10.70
2019-03-29T17:32:25.928Z,10.80
2019-03-29T17:34:57.740Z,11.50
2019-03-29T17:37:28.443Z,11.70
2019-03-29T17:40:00.380Z,12.30
2019-03-29T17:42:55.014Z,12.80
2019-03-29T17:45:27.466Z,13.30
2019-03-29T17:47:59.100Z,13.30
2019-03-29T17:50:30.536Z,14.00
2019-03-29T17:53:01.300Z,14.20
2019-03-29T17:55:32.066Z,14.20
2019-03-29T17:58:06.509Z,15.60
2019-03-29T18:00:39.495Z,16.10
2019-03-29T18:03:12.806Z,17.30
2019-03-29T18:05:46.686Z,18.10
2019-03-29T18:08:24.396Z,20.30
2019-03-29T18:10:57.916Z,21.50
2019-03-29T18:13:51.158Z,22.20
2019-03-29T18:16:35.240Z,24.10
2019-03-29T18:19:09.212Z,24.80
2019-03-29T18:21:50.914Z,25.40
2019-03-29T18:24:23.761Z,25.80
2019-03-29T18:26:54.547Z,26.00
2019-03-29T18:29:27.594Z,25.80
2019-03-29T18:31:59.423Z,26.00
2019-03-29T18:34:31.959Z,26.60
2019-03-29T18:37:04.060Z,27.40
2019-03-29T18:39:36.300Z,28.80
2019-03-29T18:42:08.015Z,29.70
2019-03-29T18:44:40.199Z,30.40
2019-03-29T18:47:11.042Z,30.90
2019-03-29T18:49:43.027Z,30.60
2019-03-29T18:52:15.053Z,31.10
2019-03-29T18:54:46.000Z,31.40
2019-03-29T18:57:18.110Z,31.70
2019-03-29T18:59:53.456Z,32.40
2019-03-29T19:02:25.651Z,32.10
2019-03-29T19:04:58.446Z,33.10
2019-03-29T19:07:33.290Z,33.30
2019-03-29T19:10:07.494Z,32.70
2019-03-29T19:12:39.661Z,35.30
2019-03-29T19:15:14.575Z,35.30
2019-03-29T19:17:51.743Z,34.90
2019-03-29T19:20:28.260Z,34.40
2019-03-29T19:22:59.199Z,35.20
2019-03-29T19:25:30.949Z,35.50
2019-03-29T19:28:01.979Z,36.50
2019-03-29T19:30:34.977Z,37.70
2019-03-29T19:33:07.229Z,38.60
2019-03-29T19:35:56.940Z,38.70
2019-03-29T19:38:28.831Z,38.60
2019-03-29T19:41:00.019Z,38.20
2019-03-29T19:43:31.086Z,38.10
2019-03-29T19:46:03.537Z,37.70
2019-03-29T19:48:34.564Z,39.30
2019-03-29T19:51:05.440Z,37.70
2019-03-29T19:53:38.509Z,37.10
2019-03-29T19:56:12.251Z,37.20
2019-03-29T19:58:43.523Z,37.60
2019-03-29T20:01:17.207Z,38.20
2019-03-29T20:03:50.967Z,37.60
2019-03-29T20:06:25.936Z,37.60
2019-03-29T20:09:00.941Z,38.90
2019-03-29T20:11:30.722Z,38.20
2019-03-29T20:14:04.765Z,37.50
2019-03-29T20:16:35.777Z,36.10
2019-03-29T20:19:06.780Z,37.40
2019-03-29T20:21:40.046Z,38.00
2019-03-29T20:24:13.191Z,39.00
2019-03-29T20:26:50.712Z,38.60
2019-03-29T20:29:22.044Z,39.80
2019-03-29T20:31:53.270Z,41.30
2019-03-29T20:34:26.158Z,41.70
2019-03-29T20:36:57.481Z,41.90
2019-03-29T20:39:31.904Z,41.10
2019-03-29T20:42:04.637Z,39.90
2019-03-29T20:44:37.218Z,39.60
2019-03-29T20:47:08.160Z,40.40
2019-03-29T20:49:38.911Z,42.50
2019-03-29T20:52:11.029Z,42.50
2019-03-29T20:54:41.767Z,44.80
2019-03-29T20:57:12.588Z,46.00
2019-03-29T20:59:43.501Z,46.80
2019-03-29T21:02:14.242Z,46.50
2019-03-29T21:04:50.918Z,43.10
2019-03-29T21:07:21.598Z,44.80
2019-03-29T21:09:53.275Z,47.30
2019-03-29T21:12:34.560Z,46.90
2019-03-29T21:15:06.168Z,48.80
2019-03-29T21:17:39.948Z,49.20
2019-03-29T21:20:14.177Z,49.70
2019-03-29T21:22:48.576Z,49.70
2019-03-29T21:25:20.476Z,49.80
2019-03-29T21:27:54.500Z,50.50
2019-03-29T21:30:25.702Z,49.20
2019-03-29T21:32:58.529Z,46.50
2019-03-29T21:35:33.335Z,47.40
2019-03-29T21:38:06.769Z,47.80
2019-03-29T21:40:40.487Z,48.40
2019-03-29T21:43:18.439Z,50.00
2019-03-29T21:45:52.247Z,53.30
2019-03-29T21:48:29.070Z,53.20
2019-03-29T21:51:01.500Z,54.20
2019-03-29T21:53:37.181Z,54.10
2019-03-29T21:56:08.484Z,52.90
2019-03-29T21:58:41.488Z,53.30
2019-03-29T22:01:23.301Z,52.50
2019-03-29T22:03:57.845Z,51.80
2019-03-29T22:06:29.546Z,51.90
2019-03-29T22:09:04.005Z,52.10
2019-03-29T22:11:36.536Z,53.40
2019-03-29T22:14:07.677Z,52.20
2019-03-29T22:16:39.190Z,52.60
2019-03-29T22:19:13.001Z,53.40
2019-03-29T22:21:47.396Z,53.10
2019-03-29T22:24:23.223Z,52.90
2019-03-29T22:26:57.035Z,50.90
2019-03-29T22:29:32.704Z,55.00
2019-03-29T22:32:05.029Z,56.40
2019-03-29T22:34:40.475Z,56.00
2019-03-29T22:37:11.326Z,57.70
2019-03-29T22:39:45.459Z,57.90
2019-03-29T22:42:16.163Z,53.40
2019-03-29T22:44:47.413Z,55.20
2019-03-29T22:47:23.888Z,59.80
2019-03-29T22:49:56.532Z,63.50
2019-03-29T22:52:29.680Z,64.70
2019-03-29T22:55:02.043Z,63.90
2019-03-29T22:57:35.632Z,62.40
2019-03-29T23:00:15.996Z,61.50
2019-03-29T23:02:47.759Z,59.80
2019-03-29T23:05:22.949Z,57.60
2019-03-29T23:07:53.642Z,58.80
2019-03-29T23:10:24.358Z,60.40
2019-03-29T23:12:59.731Z,61.90
2019-03-29T23:15:30.398Z,61.70
2019-03-29T23:18:05.756Z,62.00
2019-03-29T23:20:41.974Z,60.50
2019-03-29T23:23:16.483Z,60.00
2019-03-29T23:25:49.972Z,56.50
2019-03-29T23:28:21.547Z,55.60
2019-03-29T23:31:11.185Z,55.60
2019-03-29T23:34:07.722Z,57.20
2019-03-29T23:36:39.866Z,59.20
2019-03-29T23:39:13.748Z,60.60
2019-03-29T23:42:23.825Z,63.40
2019-03-29T23:45:00.278Z,64.30
2019-03-29T23:47:33.567Z,63.30
2019-03-29T23:50:05.045Z,57.50
2019-03-29T23:52:37.036Z,58.00
2019-03-29T23:55:12.506Z,61.20
2019-03-29T23:57:48.058Z,63.60
